Time;durP1;ratioP1;P1;durP2;ratioP2;P2;SDS_P1;SDS_P2;PMS_P1;PMS_P2;Temp;Humidity;BMP_temperature;BMP_pressure;BME280_temperature;BME280_humidity;BME280_pressure;Samples;Min_cycle;Max_cycle;Signal;HPM_P1;HPM_P2
2021/12/07 00:02:09;;;;;;;4.25;2.67;;;1.70;99.90;;;;;;5102238;28;20516;-82
2021/12/07 00:04:37;;;;;;;5.28;2.80;;;1.70;99.90;;;;;;5088264;27;20493;-82
2021/12/07 00:07:04;;;;;;;7.32;2.92;;;1.70;99.90;;;;;;5089261;27;20023;-81
2021/12/07 00:09:30;;;;;;;5.40;2.50;;;1.70;99.90;;;;;;5114595;27;20059;-82
2021/12/07 00:11:56;;;;;;;4.95;2.75;;;1.70;99.90;;;;;;5078192;28;20066;-82
2021/12/07 00:14:25;;;;;;;3.88;2.42;;;1.70;99.90;;;;;;5108991;27;20076;-81
2021/12/07 00:16:55;;;;;;;8.70;2.83;;;1.70;99.90;;;;;;5107751;28;20110;-81
2021/12/07 00:19:21;;;;;;;6.23;2.47;;;1.70;99.90;;;;;;5095181;28;20233;-81
2021/12/07 00:21:48;;;;;;;4.53;2.55;;;1.70;99.90;;;;;;5097211;27;20410;-81
2021/12/07 00:24:14;;;;;;;4.75;2.60;;;1.70;99.90;;;;;;5095792;28;20031;-81
2021/12/07 00:26:42;;;;;;;4.15;2.35;;;1.80;99.90;;;;;;5078378;28;20147;-82
2021/12/07 00:29:08;;;;;;;3.58;2.42;;;1.80;99.90;;;;;;5088171;27;20461;-81
2021/12/07 00:31:43;;;;;;;4.10;2.35;;;1.80;99.90;;;;;;5097607;28;20035;-82
2021/12/07 00:36:56;;;;;;;4.25;2.58;;;1.80;99.90;;;;;;5114973;27;20033;-82
2021/12/07 00:39:25;;;;;;;3.38;2.13;;;1.90;99.90;;;;;;5062366;28;20122;-81
2021/12/07 00:41:53;;;;;;;4.05;2.55;;;1.90;99.90;;;;;;5097081;27;20024;-82
2021/12/07 00:44:20;;;;;;;5.45;2.85;;;1.90;99.90;;;;;;5108007;27;20058;-81
2021/12/07 00:46:47;;;;;;;4.82;2.53;;;2.00;99.90;;;;;;5114789;27;20091;-82
2021/12/07 00:49:13;;;;;;;4.13;2.42;;;2.00;99.90;;;;;;5088556;27;20035;-82
2021/12/07 00:51:38;;;;;;;2.60;1.80;;;2.00;99.90;;;;;;5080198;28;20040;-82
2021/12/07 00:54:05;;;;;;;4.05;2.45;;;2.10;99.90;;;;;;5073666;27;20045;-82
2021/12/07 00:56:31;;;;;;;3.38;2.50;;;2.10;99.90;;;;;;5098299;28;20028;-81
2021/12/07 00:58:57;;;;;;;3.88;1.90;;;2.10;99.90;;;;;;5077359;28;20036;-82
2021/12/07 01:01:23;;;;;;;5.03;2.33;;;2.10;99.90;;;;;;5099289;28;20036;-82
2021/12/07 01:03:51;;;;;;;3.55;2.33;;;2.20;99.90;;;;;;5088252;27;20433;-81
2021/12/07 01:06:26;;;;;;;3.38;1.95;;;2.20;99.90;;;;;;5086817;28;20147;-81
2021/12/07 01:25:12;;;;;;;11.40;2.25;;;2.30;99.90;;;;;;5077286;28;20052;-82
2021/12/07 01:27:38;;;;;;;5.15;2.40;;;2.40;99.90;;;;;;5058168;28;20035;-81
2021/12/07 01:32:46;;;;;;;4.80;1.80;;;2.40;99.90;;;;;;5098471;28;20028;-83
2021/12/07 01:35:41;;;;;;;3.67;2.13;;;2.40;99.90;;;;;;5079490;28;20119;-82
2021/12/07 01:38:25;;;;;;;3.13;2.17;;;2.50;99.90;;;;;;5087647;27;20031;-82
2021/12/07 01:41:01;;;;;;;4.45;2.20;;;2.50;99.90;;;;;;5116276;27;20023;-82
2021/12/07 02:00:18;;;;;;;1.90;1.02;;;2.60;99.90;;;;;;5073500;28;20107;-83
2021/12/07 02:02:44;;;;;;;2.95;1.10;;;2.60;99.90;;;;;;5095287;28;20515;-81
2021/12/07 02:05:11;;;;;;;1.58;1.08;;;2.60;99.90;;;;;;5073582;28;20134;-82
2021/12/07 02:07:36;;;;;;;2.28;1.15;;;2.60;99.90;;;;;;5057693;28;20490;-81
2021/12/07 02:10:09;;;;;;;2.97;1.25;;;2.60;99.90;;;;;;5077279;28;20085;-82
2021/12/07 02:12:42;;;;;;;1.67;0.80;;;2.60;99.90;;;;;;5079498;28;20038;-82
2021/12/07 02:15:15;;;;;;;1.75;0.93;;;2.60;99.90;;;;;;5076677;28;20035;-82
2021/12/07 02:17:40;;;;;;;1.52;0.90;;;2.50;99.90;;;;;;5092796;28;20029;-82
2021/12/07 02:20:09;;;;;;;1.08;0.85;;;2.50;99.90;;;;;;5105724;28;20464;-81
2021/12/07 02:22:35;;;;;;;2.60;0.70;;;2.40;99.90;;;;;;5094172;28;20096;-82
2021/12/07 02:25:02;;;;;;;0.82;0.50;;;2.30;99.90;;;;;;5077365;28;20035;-82
2021/12/07 02:27:28;;;;;;;3.10;1.05;;;2.30;99.90;;;;;;5077690;28;20513;-82
2021/12/07 02:29:53;;;;;;;4.15;0.70;;;2.20;99.90;;;;;;5093654;28;20027;-82
2021/12/07 02:32:19;;;;;;;1.35;0.70;;;2.20;99.90;;;;;;5082192;28;20028;-82
2021/12/07 02:34:54;;;;;;;2.63;0.75;;;2.10;99.90;;;;;;5065348;28;20039;-82
2021/12/07 02:37:28;;;;;;;2.35;1.00;;;2.10;99.90;;;;;;5082389;28;20110;-82
2021/12/07 02:39:55;;;;;;;0.85;0.63;;;2.10;99.90;;;;;;5096943;27;20035;-81
2021/12/07 02:42:24;;;;;;;2.50;1.20;;;2.00;99.90;;;;;;5092050;27;20393;-81
2021/12/07 02:44:50;;;;;;;1.92;0.90;;;2.00;99.90;;;;;;5088095;28;20077;-82
2021/12/07 02:47:16;;;;;;;2.28;0.90;;;1.90;99.90;;;;;;5097053;27;20028;-81
2021/12/07 02:49:42;;;;;;;1.15;1.00;;;1.90;99.90;;;;;;5097386;28;20023;-82
2021/12/07 02:52:08;;;;;;;1.60;1.00;;;1.90;99.90;;;;;;5096869;28;20020;-82
2021/12/07 02:54:42;;;;;;;3.28;0.73;;;1.90;99.90;;;;;;5080101;28;20636;-82
2021/12/07 02:57:08;;;;;;;4.90;1.05;;;1.90;99.90;;;;;;5099583;27;21026;-82
2021/12/07 02:59:34;;;;;;;1.90;1.00;;;1.90;99.90;;;;;;5117260;27;20056;-81
2021/12/07 03:02:07;;;;;;;2.22;0.90;;;1.90;99.90;;;;;;5097318;28;20326;-82
2021/12/07 03:04:38;;;;;;;1.70;1.08;;;1.90;99.90;;;;;;5112171;27;20535;-81
2021/12/07 03:07:17;;;;;;;1.45;0.85;;;1.90;99.90;;;;;;5101130;28;20043;-81
2021/12/07 03:28:29;;;;;;;2.00;1.08;;;1.90;99.90;;;;;;5101083;27;20039;-82
2021/12/07 03:30:55;;;;;;;2.97;0.90;;;1.90;99.90;;;;;;5107101;27;20051;-82
2021/12/07 03:33:21;;;;;;;3.80;1.10;;;1.90;99.90;;;;;;5116621;27;20092;-82
2021/12/07 03:35:47;;;;;;;2.10;1.00;;;1.90;99.90;;;;;;5106273;28;20046;-82
2021/12/07 03:38:12;;;;;;;1.35;0.90;;;1.90;99.90;;;;;;5080410;28;20024;-82
2021/12/07 03:40:39;;;;;;;4.03;1.00;;;1.90;99.90;;;;;;5042855;28;20043;-82
2021/12/07 03:43:06;;;;;;;6.47;1.10;;;1.90;99.90;;;;;;5080273;28;20031;-82
2021/12/07 03:45:33;;;;;;;1.90;1.08;;;1.90;99.90;;;;;;5079716;28;20032;-82
2021/12/07 03:48:00;;;;;;;2.50;0.80;;;2.00;99.90;;;;;;5095955;28;20043;-82
2021/12/07 03:50:27;;;;;;;4.10;1.20;;;2.00;99.90;;;;;;5110019;27;20034;-81
2021/12/07 03:52:52;;;;;;;3.38;0.80;;;2.10;99.90;;;;;;5113297;27;20104;-82
2021/12/07 03:55:19;;;;;;;1.50;0.77;;;2.10;99.90;;;;;;5116752;27;20461;-82
2021/12/07 03:57:45;;;;;;;1.17;0.77;;;2.10;99.90;;;;;;5093011;28;20042;-81
2021/12/07 04:00:14;;;;;;;2.50;1.05;;;2.10;99.90;;;;;;5078832;28;20115;-82
2021/12/07 04:02:41;;;;;;;2.17;0.95;;;2.20;99.90;;;;;;5077349;28;20028;-81
2021/12/07 04:05:15;;;;;;;6.30;0.75;;;2.20;99.90;;;;;;5085413;28;20076;-82
2021/12/07 04:07:42;;;;;;;5.28;1.00;;;2.20;99.90;;;;;;5079442;28;20036;-81
2021/12/07 04:10:14;;;;;;;3.10;0.88;;;2.20;99.90;;;;;;5069923;28;20069;-81
2021/12/07 04:12:39;;;;;;;3.63;1.10;;;2.30;99.90;;;;;;5079088;28;20068;-81
2021/12/07 04:15:08;;;;;;;6.47;1.42;;;2.30;99.90;;;;;;5062043;28;20489;-82
2021/12/07 04:17:34;;;;;;;4.38;0.90;;;2.20;99.90;;;;;;5076711;28;20451;-81
2021/12/07 04:20:00;;;;;;;4.20;1.10;;;2.20;99.90;;;;;;5100181;27;20019;-82
2021/12/07 04:22:26;;;;;;;5.10;0.73;;;2.20;99.90;;;;;;5110485;28;20031;-81
2021/12/07 04:24:51;;;;;;;10.15;1.27;;;2.20;99.90;;;;;;5078361;28;20077;-81
2021/12/07 04:27:18;;;;;;;3.33;0.98;;;2.10;99.90;;;;;;5077964;28;20023;-81
2021/12/07 04:29:44;;;;;;;3.45;1.15;;;2.10;99.90;;;;;;5114434;27;20027;-82
2021/12/07 04:32:09;;;;;;;1.98;1.08;;;2.00;99.90;;;;;;5078800;28;20038;-82
2021/12/07 04:34:35;;;;;;;1.02;0.80;;;2.00;99.90;;;;;;5078835;28;20312;-81
2021/12/07 04:37:01;;;;;;;2.88;1.05;;;2.00;99.90;;;;;;5078883;28;20062;-82
2021/12/07 04:39:27;;;;;;;6.85;1.02;;;1.90;99.90;;;;;;5096527;27;20117;-81
2021/12/07 04:41:53;;;;;;;5.55;1.20;;;1.90;99.90;;;;;;5104588;28;20024;-81
2021/12/07 04:44:22;;;;;;;6.82;1.95;;;1.90;99.90;;;;;;5053293;28;20402;-82
2021/12/07 04:50:01;;;;;;;1.42;0.95;;;1.80;99.90;;;;;;5092503;28;20035;-82
2021/12/07 04:57:55;;;;;;;4.07;1.40;;;1.70;99.90;;;;;;5134386;27;20465;-82
2021/12/07 05:00:25;;;;;;;4.00;1.05;;;1.70;99.90;;;;;;5088042;28;20035;-82
2021/12/07 05:02:58;;;;;;;5.07;1.25;;;1.60;99.90;;;;;;5079337;27;20042;-82
2021/12/07 05:05:30;;;;;;;8.48;1.42;;;1.70;99.90;;;;;;5115742;27;20055;-82
2021/12/07 05:08:03;;;;;;;6.65;1.60;;;1.60;99.90;;;;;;5110220;27;20037;-82
2021/12/07 05:10:59;;;;;;;4.57;1.52;;;1.60;99.90;;;;;;5087173;28;20046;-82
2021/12/07 05:40:00;;;;;;;6.43;1.30;;;1.40;99.90;;;;;;5102450;27;20114;-82
2021/12/07 05:42:26;;;;;;;2.90;1.05;;;1.40;99.90;;;;;;5114798;27;20019;-82
2021/12/07 05:44:54;;;;;;;1.20;0.80;;;1.30;99.90;;;;;;5081560;28;20475;-82
2021/12/07 05:47:20;;;;;;;1.73;0.95;;;1.40;99.90;;;;;;5057182;28;20115;-82
2021/12/07 05:49:46;;;;;;;4.75;1.45;;;1.40;99.90;;;;;;5057201;28;20063;-82
2021/12/07 05:52:12;;;;;;;2.13;1.10;;;1.40;99.90;;;;;;5088170;28;20059;-82
2021/12/07 05:54:37;;;;;;;1.85;1.08;;;1.40;99.90;;;;;;5097112;27;20145;-82
2021/12/07 05:57:04;;;;;;;7.90;1.38;;;1.40;99.90;;;;;;5097485;27;20019;-82
2021/12/07 05:59:30;;;;;;;7.97;1.33;;;1.50;99.90;;;;;;5112344;27;20393;-82
2021/12/07 06:01:55;;;;;;;9.45;1.90;;;1.50;99.90;;;;;;5103610;27;20024;-82
2021/12/07 06:04:21;;;;;;;4.43;1.10;;;1.60;99.90;;;;;;5096846;28;20031;-81
2021/12/07 06:06:47;;;;;;;4.50;1.35;;;1.60;99.90;;;;;;5073625;28;20122;-82
2021/12/07 06:09:12;;;;;;;7.20;2.00;;;1.70;99.90;;;;;;5073425;28;20093;-82
2021/12/07 06:11:38;;;;;;;7.28;2.08;;;1.60;99.90;;;;;;5056823;28;20150;-81
2021/12/07 06:14:03;;;;;;;5.65;1.80;;;1.60;99.90;;;;;;5078353;28;20055;-82
2021/12/07 06:16:31;;;;;;;5.85;1.65;;;1.60;99.90;;;;;;5107851;28;20386;-82
2021/12/07 06:18:57;;;;;;;2.80;1.48;;;1.60;99.90;;;;;;5079535;28;20114;-82
2021/12/07 06:21:25;;;;;;;4.57;1.60;;;1.60;99.90;;;;;;5094069;28;20390;-82
2021/12/07 06:23:54;;;;;;;5.90;1.80;;;1.50;99.90;;;;;;5077867;28;20573;-82
2021/12/07 06:26:20;;;;;;;5.18;1.98;;;1.50;99.90;;;;;;5077221;28;20070;-82
2021/12/07 06:28:45;;;;;;;16.23;2.45;;;1.50;99.90;;;;;;5077381;28;20563;-82
2021/12/07 06:31:11;;;;;;;11.57;2.28;;;1.50;99.90;;;;;;5076522;28;20075;-82
2021/12/07 06:33:37;;;;;;;11.20;3.10;;;1.50;99.90;;;;;;5076513;28;20066;-82
2021/12/07 06:36:04;;;;;;;8.40;2.08;;;1.50;99.90;;;;;;5094137;28;20055;-82
2021/12/07 06:38:32;;;;;;;6.40;2.20;;;1.50;99.90;;;;;;5077239;28;20027;-82
2021/12/07 06:41:00;;;;;;;12.77;2.75;;;1.50;99.90;;;;;;5073595;28;20028;-82
2021/12/07 06:43:28;;;;;;;5.35;2.05;;;1.50;99.90;;;;;;5057101;28;20387;-82
2021/12/07 06:45:57;;;;;;;14.98;2.42;;;1.60;99.90;;;;;;5092504;28;20401;-82
2021/12/07 06:48:23;;;;;;;8.82;2.08;;;1.60;99.90;;;;;;5073411;28;20192;-82
2021/12/07 06:50:49;;;;;;;12.25;3.28;;;1.60;99.90;;;;;;5074183;28;20138;-83
2021/12/07 06:53:16;;;;;;;12.82;2.60;;;1.70;99.90;;;;;;5100926;28;20031;-82
2021/12/07 06:55:42;;;;;;;16.67;2.60;;;1.70;99.90;;;;;;5113796;28;20157;-82
2021/12/07 06:58:08;;;;;;;11.35;1.95;;;1.70;99.90;;;;;;5108727;28;20034;-82
2021/12/07 07:00:34;;;;;;;17.10;2.45;;;1.80;99.90;;;;;;5085412;28;20020;-82
2021/12/07 07:03:00;;;;;;;9.90;2.28;;;1.80;99.90;;;;;;5097049;28;20031;-82
2021/12/07 07:05:26;;;;;;;13.25;2.45;;;1.90;99.90;;;;;;5113966;28;20503;-82
2021/12/07 07:07:52;;;;;;;10.48;2.00;;;1.90;99.90;;;;;;5098923;28;20031;-82
2021/12/07 07:10:19;;;;;;;12.38;2.63;;;1.90;99.90;;;;;;5096840;28;20035;-82
2021/12/07 07:12:46;;;;;;;5.47;1.98;;;1.90;99.90;;;;;;5098575;27;20092;-82
2021/12/07 07:15:12;;;;;;;7.07;2.42;;;2.00;99.90;;;;;;5116181;27;20062;-82
2021/12/07 07:17:39;;;;;;;11.07;3.55;;;2.00;99.90;;;;;;5084036;27;20068;-82
2021/12/07 07:20:08;;;;;;;10.13;2.10;;;2.00;99.90;;;;;;5100728;27;20075;-82
2021/12/07 07:22:34;;;;;;;11.63;2.25;;;2.00;99.90;;;;;;5100628;27;20031;-82
2021/12/07 07:24:59;;;;;;;16.55;2.72;;;2.00;99.90;;;;;;5117582;27;20320;-82
2021/12/07 07:27:25;;;;;;;12.65;2.53;;;2.00;99.90;;;;;;5103142;27;20538;-82
2021/12/07 07:29:51;;;;;;;17.17;2.65;;;2.00;99.90;;;;;;5100591;27;20061;-82
2021/12/07 07:32:17;;;;;;;12.45;2.17;;;2.00;99.90;;;;;;5114543;27;20854;-82
2021/12/07 07:34:43;;;;;;;8.15;2.10;;;2.10;99.90;;;;;;5095810;27;20034;-83
2021/12/07 07:37:09;;;;;;;8.23;2.20;;;2.10;99.90;;;;;;5117534;27;20034;-82
2021/12/07 07:39:35;;;;;;;6.35;2.65;;;2.10;99.90;;;;;;5114109;28;20098;-82
2021/12/07 07:42:01;;;;;;;17.40;2.58;;;2.10;99.90;;;;;;5097084;28;20375;-82
2021/12/07 07:44:26;;;;;;;5.18;2.15;;;2.10;99.90;;;;;;5096847;28;20038;-82
2021/12/07 07:46:52;;;;;;;14.45;2.30;;;2.10;99.90;;;;;;5083067;27;20067;-82
2021/12/07 07:49:18;;;;;;;8.82;2.40;;;2.10;99.90;;;;;;5115959;27;20046;-83
2021/12/07 07:51:43;;;;;;;10.70;2.08;;;2.10;99.90;;;;;;5088908;27;20062;-83
2021/12/07 07:54:09;;;;;;;13.85;2.60;;;2.10;99.90;;;;;;5105069;27;20062;-82
2021/12/07 07:56:36;;;;;;;5.78;1.67;;;2.20;99.90;;;;;;5119147;28;20035;-83
2021/12/07 07:59:03;;;;;;;12.20;2.70;;;2.20;99.90;;;;;;5102843;28;20023;-83
2021/12/07 08:01:31;;;;;;;6.95;2.60;;;2.20;99.90;;;;;;5119537;28;20073;-83
2021/12/07 08:03:59;;;;;;;6.13;2.10;;;2.20;99.90;;;;;;5120225;28;20034;-83
2021/12/07 08:06:24;;;;;;;9.23;2.33;;;2.30;99.90;;;;;;5119437;28;20447;-83
2021/12/07 08:08:51;;;;;;;11.60;1.92;;;2.30;99.90;;;;;;5114247;28;20035;-83
2021/12/07 08:11:16;;;;;;;7.95;1.70;;;2.40;99.90;;;;;;5117558;27;20020;-83
2021/12/07 08:13:42;;;;;;;12.98;2.10;;;2.40;99.90;;;;;;5086564;27;20042;-83
2021/12/07 08:16:15;;;;;;;10.57;2.28;;;2.40;99.90;;;;;;5108063;27;20036;-82
2021/12/07 08:18:45;;;;;;;9.23;2.42;;;2.50;99.90;;;;;;5107669;28;20056;-82
2021/12/07 08:21:12;;;;;;;9.43;2.65;;;2.50;99.90;;;;;;5078248;28;20035;-84
2021/12/07 08:23:38;;;;;;;10.25;2.28;;;2.50;99.90;;;;;;5077400;28;20126;-84
2021/12/07 08:26:06;;;;;;;6.13;3.00;;;2.60;99.90;;;;;;5125452;27;20035;-84
2021/12/07 08:28:32;;;;;;;5.72;2.53;;;2.60;99.90;;;;;;5098137;28;20143;-84
2021/12/07 08:30:58;;;;;;;5.82;2.38;;;2.60;99.90;;;;;;5077708;28;20115;-84
2021/12/07 08:33:24;;;;;;;8.90;2.45;;;2.60;99.90;;;;;;5094817;28;20048;-84
2021/12/07 08:35:50;;;;;;;6.43;2.00;;;2.60;99.90;;;;;;5077735;28;20020;-84
2021/12/07 08:38:16;;;;;;;8.55;1.85;;;2.70;99.90;;;;;;5078343;28;20024;-84
2021/12/07 08:40:42;;;;;;;10.55;1.83;;;2.80;99.90;;;;;;5091858;27;20027;-84
2021/12/07 08:43:11;;;;;;;6.53;1.98;;;2.90;99.90;;;;;;5115358;27;20031;-84
2021/12/07 08:45:40;;;;;;;7.93;1.73;;;3.00;99.90;;;;;;5114839;27;20030;-85
2021/12/07 08:48:06;;;;;;;10.10;1.75;;;3.10;99.90;;;;;;5097830;28;20038;-84
2021/12/07 08:50:32;;;;;;;10.60;2.30;;;3.10;99.90;;;;;;5075070;28;20032;-84
2021/12/07 08:53:03;;;;;;;7.80;1.45;;;3.20;99.90;;;;;;5093390;27;20735;-84
2021/12/07 09:01:02;;;;;;;4.20;1.45;;;3.40;99.90;;;;;;5115836;27;20035;-84
2021/12/07 09:03:28;;;;;;;8.48;1.75;;;3.40;99.90;;;;;;5077223;28;20035;-84
2021/12/07 09:05:54;;;;;;;6.03;1.38;;;3.50;99.90;;;;;;5076926;28;20039;-84
2021/12/07 09:08:20;;;;;;;8.23;2.25;;;3.60;99.90;;;;;;5086154;27;20031;-84
2021/12/07 09:10:46;;;;;;;8.80;1.92;;;3.60;99.90;;;;;;5085714;27;20043;-85
2021/12/07 09:13:11;;;;;;;11.77;1.85;;;3.60;99.90;;;;;;5114326;27;20112;-84
2021/12/07 09:15:38;;;;;;;11.10;1.77;;;3.70;99.90;;;;;;5097235;27;20023;-85
2021/12/07 09:18:04;;;;;;;10.10;1.95;;;3.70;99.90;;;;;;5097166;27;20088;-85
2021/12/07 09:20:30;;;;;;;9.98;1.85;;;3.60;99.90;;;;;;5097284;27;20477;-85
2021/12/07 09:22:56;;;;;;;16.38;2.08;;;3.60;99.90;;;;;;5114228;27;20396;-84
2021/12/07 09:25:22;;;;;;;14.20;2.63;;;3.60;99.90;;;;;;5131916;27;20034;-85
2021/12/07 09:27:48;;;;;;;10.40;2.00;;;3.60;99.90;;;;;;5093665;27;20054;-84
2021/12/07 09:30:16;;;;;;;8.95;2.20;;;3.60;99.90;;;;;;5096736;27;20035;-84
2021/12/07 09:32:43;;;;;;;5.88;1.55;;;3.60;99.90;;;;;;5097711;27;20027;-84
2021/12/07 09:35:10;;;;;;;10.27;2.08;;;3.60;99.90;;;;;;5111737;28;20038;-84
2021/12/07 09:37:37;;;;;;;11.68;1.95;;;3.60;99.90;;;;;;5093066;27;20045;-84
2021/12/07 09:40:07;;;;;;;16.30;3.15;;;3.60;99.90;;;;;;5106140;28;20061;-84
2021/12/07 09:42:33;;;;;;;7.03;1.98;;;3.70;99.90;;;;;;5093803;28;20684;-84
2021/12/07 09:44:58;;;;;;;13.02;2.45;;;3.70;99.90;;;;;;5093288;28;20035;-84
2021/12/07 09:47:24;;;;;;;12.48;2.13;;;3.80;99.90;;;;;;5076186;28;20039;-84
2021/12/07 09:49:50;;;;;;;16.27;2.53;;;3.80;99.90;;;;;;5076687;27;20505;-84
2021/12/07 09:52:16;;;;;;;6.57;1.80;;;3.90;99.90;;;;;;5113925;27;20063;-84
2021/12/07 09:54:43;;;;;;;7.15;2.20;;;3.90;99.90;;;;;;5097133;27;20490;-84
2021/12/07 09:57:09;;;;;;;8.50;2.20;;;3.90;99.90;;;;;;5096784;27;20076;-85
2021/12/07 09:59:34;;;;;;;16.00;2.47;;;3.90;99.90;;;;;;5113334;27;20027;-84
2021/12/07 10:02:03;;;;;;;15.38;2.20;;;3.90;99.90;;;;;;5096522;27;20435;-84
2021/12/07 10:04:28;;;;;;;15.02;3.08;;;3.90;99.90;;;;;;5100819;28;20028;-84
2021/12/07 10:06:55;;;;;;;8.88;2.90;;;3.90;99.90;;;;;;5076057;28;20039;-84
2021/12/07 10:09:21;;;;;;;14.55;3.40;;;3.90;99.90;;;;;;5076065;28;20383;-84
2021/12/07 10:11:52;;;;;;;15.10;2.03;;;4.00;99.90;;;;;;5093059;28;20020;-84
2021/12/07 10:14:18;;;;;;;12.75;3.67;;;3.90;99.90;;;;;;5093927;28;20028;-85
2021/12/07 10:16:46;;;;;;;14.80;3.15;;;3.90;99.90;;;;;;5076549;28;20383;-85
2021/12/07 10:19:15;;;;;;;12.98;3.72;;;4.00;99.90;;;;;;5095895;28;20027;-85
2021/12/07 10:21:43;;;;;;;9.23;2.42;;;4.00;99.90;;;;;;5113885;28;20389;-84
2021/12/07 10:24:11;;;;;;;9.82;2.70;;;4.00;99.90;;;;;;5097450;28;20401;-84
2021/12/07 10:26:43;;;;;;;10.25;2.58;;;4.10;99.90;;;;;;5102206;28;20058;-84
2021/12/07 10:29:20;;;;;;;18.23;2.55;;;4.00;99.90;;;;;;5077064;28;20521;-85
2021/12/07 10:31:55;;;;;;;5.75;2.10;;;4.00;99.90;;;;;;5097028;28;20113;-85
2021/12/07 10:34:31;;;;;;;8.82;1.92;;;4.00;99.90;;;;;;5056600;28;20044;-84
2021/12/07 10:37:14;;;;;;;13.43;2.13;;;4.00;99.90;;;;;;5073249;28;20053;-83
2021/12/07 10:39:46;;;;;;;6.85;2.15;;;4.00;99.90;;;;;;5056281;28;20052;-84
2021/12/07 10:42:27;;;;;;;10.73;1.70;;;4.00;99.90;;;;;;5056886;28;20020;-84
2021/12/07 10:44:53;;;;;;;11.85;1.63;;;4.00;99.90;;;;;;5082221;28;20508;-84
2021/12/07 10:47:22;;;;;;;12.02;2.03;;;4.10;99.90;;;;;;5083839;28;20044;-84
2021/12/07 10:49:51;;;;;;;8.82;1.85;;;4.10;99.90;;;;;;5059855;28;20115;-84
2021/12/07 10:52:33;;;;;;;9.52;2.03;;;4.20;99.90;;;;;;5059919;28;20032;-83
2021/12/07 10:55:19;;;;;;;5.28;1.17;;;4.20;99.90;;;;;;5103945;27;20027;-84
2021/12/07 10:57:50;;;;;;;9.00;1.55;;;4.30;99.90;;;;;;5099987;27;20075;-84
2021/12/07 11:00:34;;;;;;;7.25;1.77;;;4.40;99.90;;;;;;5100057;27;20079;-85
2021/12/07 11:03:07;;;;;;;10.05;1.40;;;4.40;99.90;;;;;;5087732;28;20032;-85
2021/12/07 11:05:36;;;;;;;8.38;2.38;;;4.40;99.90;;;;;;5073121;27;20031;-84
2021/12/07 11:08:05;;;;;;;11.90;1.98;;;4.30;99.90;;;;;;5099816;27;20031;-84
2021/12/07 11:10:33;;;;;;;13.65;1.75;;;4.30;99.90;;;;;;5116680;27;20552;-84
2021/12/07 11:13:17;;;;;;;8.40;1.77;;;4.40;99.90;;;;;;5116327;27;20035;-83
2021/12/07 11:15:50;;;;;;;7.80;1.70;;;4.40;99.90;;;;;;5107796;27;20019;-83
2021/12/07 11:18:22;;;;;;;9.35;2.13;;;4.50;99.90;;;;;;5116957;27;20057;-83
2021/12/07 11:20:48;;;;;;;7.22;1.65;;;4.60;99.90;;;;;;5109619;28;20020;-83
2021/12/07 11:23:20;;;;;;;7.47;2.05;;;4.70;99.90;;;;;;5079075;28;20133;-84
2021/12/07 11:31:28;;;;;;;11.27;2.00;;;5.00;99.90;;;;;;5108987;28;20088;-83
2021/12/07 11:34:21;;;;;;;8.65;2.47;;;5.00;99.90;;;;;;5082907;27;20043;-83
2021/12/07 11:36:54;;;;;;;9.73;1.90;;;5.10;99.90;;;;;;5116677;27;20027;-83
2021/12/07 11:39:31;;;;;;;13.15;1.80;;;5.20;99.90;;;;;;5116495;27;20020;-83
2021/12/07 11:41:59;;;;;;;5.15;1.83;;;5.20;99.90;;;;;;5116085;27;20549;-83
2021/12/07 11:44:25;;;;;;;5.20;1.52;;;5.40;99.90;;;;;;5116031;27;20478;-83
2021/12/07 11:46:52;;;;;;;10.35;1.98;;;5.50;99.90;;;;;;5112773;27;20027;-83
2021/12/07 11:49:24;;;;;;;7.38;2.10;;;5.70;99.90;;;;;;5095978;28;20480;-83
2021/12/07 11:51:53;;;;;;;8.50;1.95;;;5.80;99.90;;;;;;5079100;28;20027;-84
2021/12/07 11:54:28;;;;;;;6.78;1.63;;;5.80;99.90;;;;;;5088358;28;20027;-83
2021/12/07 11:56:55;;;;;;;8.63;2.13;;;5.70;99.90;;;;;;5090584;28;20031;-83
2021/12/07 11:59:21;;;;;;;14.80;2.17;;;5.70;99.90;;;;;;5111348;27;20028;-83
2021/12/07 12:01:48;;;;;;;4.35;1.73;;;5.60;99.90;;;;;;5129068;27;20484;-84
2021/12/07 12:04:17;;;;;;;4.05;1.45;;;5.60;99.90;;;;;;5121067;28;20039;-83
2021/12/07 12:06:53;;;;;;;8.25;1.67;;;5.70;99.90;;;;;;5093676;28;20034;-83
2021/12/07 12:09:19;;;;;;;9.20;2.03;;;5.80;99.90;;;;;;5094159;28;20043;-83
2021/12/07 12:12:33;;;;;;;8.38;2.08;;;5.80;99.90;;;;;;5097234;28;20126;-84
2021/12/07 12:15:05;;;;;;;6.70;1.90;;;5.90;99.90;;;;;;5105799;28;20043;-83
2021/12/07 12:18:01;;;;;;;8.77;1.65;;;5.90;99.90;;;;;;5112841;28;20123;-86
2021/12/07 12:20:30;;;;;;;5.20;1.52;;;6.00;99.90;;;;;;5108200;28;20020;-86
2021/12/07 12:23:11;;;;;;;4.45;1.70;;;5.90;99.90;;;;;;5108494;28;20035;-84
2021/12/07 12:25:37;;;;;;;13.85;2.78;;;5.90;99.90;;;;;;5113909;27;20034;-84
2021/12/07 12:28:06;;;;;;;9.30;1.90;;;5.80;99.90;;;;;;5130155;27;20019;-84
2021/12/07 12:30:40;;;;;;;9.40;2.00;;;5.80;99.90;;;;;;5113320;27;20031;-83
2021/12/07 12:33:14;;;;;;;12.73;2.40;;;5.70;99.90;;;;;;5130708;27;20019;-84
2021/12/07 12:35:47;;;;;;;7.53;1.67;;;5.60;99.90;;;;;;5113868;27;20035;-84
2021/12/07 12:38:25;;;;;;;5.90;1.65;;;5.60;99.90;;;;;;5131948;27;20027;-84
2021/12/07 12:41:11;;;;;;;7.28;1.50;;;5.60;99.90;;;;;;5089761;28;20027;-84
2021/12/07 12:43:52;;;;;;;10.43;2.38;;;5.60;99.90;;;;;;5076245;27;20035;-84
2021/12/07 12:46:28;;;;;;;6.90;1.90;;;5.70;99.90;;;;;;5092698;28;20095;-84
2021/12/07 12:48:57;;;;;;;12.50;2.78;;;5.70;99.90;;;;;;5128011;28;20028;-85
2021/12/07 12:51:25;;;;;;;7.40;2.05;;;5.80;99.90;;;;;;5092567;28;20028;-85
2021/12/07 12:53:53;;;;;;;5.57;1.33;;;5.80;99.90;;;;;;5089400;28;20035;-85
2021/12/07 12:56:23;;;;;;;9.73;1.60;;;5.80;99.90;;;;;;5072669;28;20028;-85
2021/12/07 12:59:10;;;;;;;6.35;2.58;;;5.90;99.90;;;;;;5088668;28;20042;-85
2021/12/07 13:01:37;;;;;;;5.13;1.73;;;5.90;99.90;;;;;;5115133;27;20023;-84
2021/12/07 13:04:08;;;;;;;6.63;1.90;;;5.80;99.90;;;;;;5130832;27;20019;-84
2021/12/07 13:06:34;;;;;;;8.52;2.00;;;5.60;99.90;;;;;;5117049;28;20035;-84
2021/12/07 13:09:21;;;;;;;10.70;1.92;;;5.50;99.90;;;;;;5130209;27;20156;-86
2021/12/07 13:12:05;;;;;;;8.85;1.90;;;5.40;99.90;;;;;;5133135;27;20027;-84
2021/12/07 13:14:55;;;;;;;4.97;1.60;;;5.40;99.90;;;;;;5113854;27;20027;-84
2021/12/07 13:17:33;;;;;;;7.80;2.03;;;5.20;99.90;;;;;;5115446;27;20059;-84
2021/12/07 13:20:20;;;;;;;9.43;1.55;;;5.10;99.90;;;;;;5096913;27;20371;-84
2021/12/07 13:23:00;;;;;;;5.35;1.63;;;5.00;99.90;;;;;;5096297;28;20049;-84
2021/12/07 13:25:36;;;;;;;8.75;2.55;;;4.80;99.90;;;;;;5078097;28;20035;-84
2021/12/07 13:28:33;;;;;;;6.97;1.90;;;4.70;99.90;;;;;;5077934;28;20085;-84
2021/12/07 13:31:21;;;;;;;8.55;1.40;;;4.70;99.90;;;;;;5079682;28;20031;-84
2021/12/07 13:33:51;;;;;;;14.23;2.58;;;4.70;99.90;;;;;;5079558;28;20036;-84
2021/12/07 13:36:57;;;;;;;8.23;2.30;;;4.80;99.90;;;;;;5110228;27;20051;-84
2021/12/07 13:39:23;;;;;;;4.60;1.35;;;4.80;99.90;;;;;;5114879;27;20023;-84
2021/12/07 13:42:17;;;;;;;9.02;2.67;;;4.90;99.90;;;;;;5110651;27;20031;-84
2021/12/07 13:44:43;;;;;;;9.68;2.35;;;4.90;99.90;;;;;;5109015;27;20046;-84
2021/12/07 13:47:12;;;;;;;13.00;2.38;;;4.90;99.90;;;;;;5094333;28;20027;-83
2021/12/07 13:49:42;;;;;;;11.75;2.38;;;4.90;99.90;;;;;;5088291;27;20050;-85
2021/12/07 13:52:10;;;;;;;9.48;2.00;;;4.90;99.90;;;;;;5097102;27;20294;-85
2021/12/07 13:54:41;;;;;;;7.22;2.00;;;4.90;99.90;;;;;;5113159;27;20030;-85
2021/12/07 13:57:12;;;;;;;11.85;2.08;;;4.80;99.90;;;;;;5113191;27;20027;-85
2021/12/07 13:59:38;;;;;;;6.70;1.52;;;4.90;99.90;;;;;;5113273;27;20110;-85
2021/12/07 14:02:04;;;;;;;8.73;1.73;;;4.90;99.90;;;;;;5112478;27;20165;-85
2021/12/07 14:04:29;;;;;;;8.88;1.70;;;4.80;99.90;;;;;;5093172;27;20066;-85
2021/12/07 14:06:56;;;;;;;6.03;2.20;;;4.80;99.90;;;;;;5097590;28;20031;-85
2021/12/07 14:09:23;;;;;;;13.05;1.60;;;4.80;99.90;;;;;;5096013;28;20080;-85
2021/12/07 14:11:57;;;;;;;5.85;1.30;;;4.70;99.90;;;;;;5107470;28;20042;-85
2021/12/07 14:14:25;;;;;;;7.57;1.70;;;4.70;99.90;;;;;;5075505;28;20031;-85
2021/12/07 14:16:57;;;;;;;4.88;1.60;;;4.70;99.90;;;;;;5092363;28;20097;-85
2021/12/07 14:19:23;;;;;;;9.63;2.55;;;4.70;99.90;;;;;;5075612;28;20048;-85
2021/12/07 14:21:50;;;;;;;9.60;2.05;;;4.60;99.90;;;;;;5109835;27;20072;-85
2021/12/07 14:24:19;;;;;;;6.80;1.60;;;4.60;99.90;;;;;;5100448;27;20434;-84
2021/12/07 14:26:45;;;;;;;6.63;1.65;;;4.60;99.90;;;;;;5116651;27;20466;-84
2021/12/07 14:29:18;;;;;;;6.18;2.10;;;4.60;99.90;;;;;;5098714;27;20396;-85
2021/12/07 14:31:52;;;;;;;7.55;1.85;;;4.60;99.90;;;;;;5100578;27;20053;-85
2021/12/07 14:34:32;;;;;;;3.70;1.65;;;4.60;99.90;;;;;;5116289;27;20030;-85
2021/12/07 14:37:02;;;;;;;;;;;4.60;99.90;;;;;;5100837;27;20470;-84
2021/12/07 14:39:32;;;;;;;5.63;1.70;;;4.60;99.90;;;;;;5092836;28;20010;-84
2021/12/07 14:42:07;;;;;;;4.35;1.42;;;4.60;99.90;;;;;;5095444;27;20024;-84
2021/12/07 14:44:39;;;;;;;6.60;1.42;;;4.60;99.90;;;;;;5100130;27;20072;-85
2021/12/07 14:47:07;;;;;;;5.03;1.40;;;4.60;99.90;;;;;;5082729;27;20083;-84
2021/12/07 14:49:41;;;;;;;2.72;1.42;;;4.60;99.90;;;;;;5072558;28;20039;-84
2021/12/07 14:52:18;;;;;;;11.07;1.88;;;4.60;99.90;;;;;;5092685;28;20024;-84